TOM5DC LGIR-EGGD
Flight info
| Callsign | TOM5DC |
|---|---|
| Flight time | 4h 1m |
| Altitude | 40000 |
| Route | EPALO M749 DIRMI UM749 ATV DCT BITLA DCT MAVAR DCT GACMO DCT NAVSU DCT KOTOR DCT ZARVE DCT ABISO DCT NANIT DCT ERKIR DCT KONIN DCT BABEG DCT LIRSU DCT DENUT L610 KOPUL Q63 ICTAM L179 SAWPE |
| Aircraft | B738/M-SDE2E3FGHIRWXY/LB1 |
Departure
| Time | 2026-05-04 12:32 |
|---|---|
| Airport | Heraklion International Nikos Kazantzakis Airport (LGIR) |
Arrival
| Time | 2026-05-04 16:34 |
|---|---|
| Airport | Bristol Airport (EGGD) |
| Time | Latitude | Longitude | Altitude | Speed | Heading |
|---|---|---|---|---|---|
| 2026-05-04 12:09 | 35.33889 | 25.17154 | 93 ft | 0 kts | 314° |
| 2026-05-04 12:10 | 35.33887 | 25.17155 | 93 ft | 0 kts | 315° |
| 2026-05-04 12:27 | 35.33897 | 25.17148 | 115 ft | 5 kts | 332° |
| 2026-05-04 12:27 | 35.33932 | 25.17188 | 89 ft | 11 kts | 88° |
| 2026-05-04 12:28 | 35.33927 | 25.17298 | 90 ft | 14 kts | 94° |
| 2026-05-04 12:28 | 35.33917 | 25.17421 | 90 ft | 16 kts | 95° |
| 2026-05-04 12:28 | 35.33908 | 25.17567 | 92 ft | 19 kts | 94° |
| 2026-05-04 12:28 | 35.33896 | 25.17732 | 92 ft | 21 kts | 95° |
| 2026-05-04 12:29 | 35.33883 | 25.17923 | 92 ft | 24 kts | 95° |
| 2026-05-04 12:29 | 35.33868 | 25.18135 | 94 ft | 25 kts | 95° |
| 2026-05-04 12:29 | 35.33854 | 25.18341 | 92 ft | 23 kts | 95° |
| 2026-05-04 12:29 | 35.33840 | 25.18535 | 93 ft | 23 kts | 94° |
| 2026-05-04 12:30 | 35.33828 | 25.18724 | 89 ft | 22 kts | 94° |
| 2026-05-04 12:30 | 35.33819 | 25.18908 | 89 ft | 21 kts | 82° |
| 2026-05-04 12:30 | 35.33878 | 25.19053 | 89 ft | 16 kts | 63° |
| 2026-05-04 12:30 | 35.33904 | 25.19029 | 90 ft | 6 kts | 275° |
| 2026-05-04 12:31 | 35.33905 | 25.19022 | 89 ft | 0 kts | 278° |
| 2026-05-04 12:31 | 35.33906 | 25.19014 | 89 ft | 7 kts | 277° |
| 2026-05-04 12:31 | 35.33933 | 25.18632 | 88 ft | 82 kts | 274° |
| 2026-05-04 12:32 | 35.34001 | 25.17655 | 91 ft | 146 kts | 276° |
| 2026-05-04 12:32 | 35.34165 | 25.14601 | 901 ft | 201 kts | 279° |
| 2026-05-04 12:32 | 35.34751 | 25.13172 | 1871 ft | 183 kts | 321° |
| 2026-05-04 12:33 | 35.35979 | 25.12590 | 2308 ft | 202 kts | 347° |
| 2026-05-04 12:33 | 35.37391 | 25.12272 | 2690 ft | 214 kts | 346° |
| 2026-05-04 12:33 | 35.38868 | 25.11912 | 3260 ft | 216 kts | 345° |
| 2026-05-04 12:33 | 35.40395 | 25.11510 | 3630 ft | 232 kts | 344° |
| 2026-05-04 12:34 | 35.42019 | 25.11053 | 4183 ft | 243 kts | 345° |
| 2026-05-04 12:34 | 35.43654 | 25.10561 | 5116 ft | 239 kts | 344° |
| 2026-05-04 12:34 | 35.45278 | 25.10053 | 5876 ft | 243 kts | 344° |
| 2026-05-04 12:34 | 35.46915 | 25.09519 | 6642 ft | 245 kts | 344° |
| 2026-05-04 12:35 | 35.48570 | 25.08969 | 7352 ft | 248 kts | 343° |
| 2026-05-04 12:35 | 35.50245 | 25.08405 | 8067 ft | 251 kts | 343° |
| 2026-05-04 12:35 | 35.51918 | 25.07835 | 8776 ft | 254 kts | 343° |
| 2026-05-04 12:35 | 35.53634 | 25.07247 | 9474 ft | 257 kts | 343° |
| 2026-05-04 12:36 | 35.55372 | 25.06648 | 10172 ft | 261 kts | 343° |
| 2026-05-04 12:36 | 35.57131 | 25.05938 | 10549 ft | 275 kts | 335° |
| 2026-05-04 12:36 | 35.58917 | 25.04864 | 10718 ft | 296 kts | 332° |
| 2026-05-04 12:36 | 35.60798 | 25.03621 | 10934 ft | 315 kts | 331° |
| 2026-05-04 12:37 | 35.62746 | 25.02313 | 11445 ft | 322 kts | 331° |
| 2026-05-04 12:37 | 35.64724 | 25.00991 | 12102 ft | 325 kts | 331° |
| 2026-05-04 12:37 | 35.66698 | 24.99683 | 12755 ft | 328 kts | 332° |
| 2026-05-04 12:37 | 35.68721 | 24.98353 | 13434 ft | 331 kts | 332° |
| 2026-05-04 12:38 | 35.70762 | 24.97019 | 14072 ft | 334 kts | 332° |
| 2026-05-04 12:38 | 35.72830 | 24.95673 | 14687 ft | 336 kts | 332° |
| 2026-05-04 12:38 | 35.74900 | 24.94330 | 15355 ft | 336 kts | 331° |
| 2026-05-04 12:38 | 35.76975 | 24.92985 | 15995 ft | 338 kts | 331° |
| 2026-05-04 12:39 | 35.79060 | 24.91635 | 16615 ft | 339 kts | 331° |
| 2026-05-04 12:39 | 35.81157 | 24.90276 | 17233 ft | 341 kts | 331° |
| 2026-05-04 12:39 | 35.83264 | 24.88912 | 17865 ft | 343 kts | 331° |
| 2026-05-04 12:39 | 35.85357 | 24.87556 | 18462 ft | 344 kts | 331° |
| 2026-05-04 12:40 | 35.87483 | 24.86179 | 18990 ft | 346 kts | 331° |
| 2026-05-04 12:40 | 35.89615 | 24.84796 | 19551 ft | 346 kts | 330° |
| 2026-05-04 12:40 | 35.91741 | 24.83418 | 20119 ft | 346 kts | 330° |
| 2026-05-04 12:40 | 35.93873 | 24.82034 | 20666 ft | 346 kts | 330° |
| 2026-05-04 12:41 | 35.96009 | 24.80647 | 21199 ft | 347 kts | 330° |
| 2026-05-04 12:41 | 35.98146 | 24.79258 | 21736 ft | 347 kts | 330° |
| 2026-05-04 12:41 | 36.00295 | 24.77861 | 22203 ft | 350 kts | 330° |
| 2026-05-04 12:41 | 36.02457 | 24.76454 | 22711 ft | 351 kts | 330° |
| 2026-05-04 12:42 | 36.04614 | 24.75049 | 23251 ft | 351 kts | 330° |
| 2026-05-04 12:42 | 36.06781 | 24.73638 | 23764 ft | 351 kts | 330° |
| 2026-05-04 12:42 | 36.08916 | 24.72247 | 24129 ft | 353 kts | 330° |
| 2026-05-04 12:42 | 36.11125 | 24.70805 | 24454 ft | 356 kts | 330° |
| 2026-05-04 12:43 | 36.13319 | 24.69373 | 24783 ft | 358 kts | 330° |
| 2026-05-04 12:43 | 36.15530 | 24.67928 | 25141 ft | 360 kts | 329° |
| 2026-05-04 12:43 | 36.17721 | 24.66497 | 25465 ft | 362 kts | 329° |
| 2026-05-04 12:43 | 36.19958 | 24.65034 | 25795 ft | 364 kts | 329° |
| 2026-05-04 12:44 | 36.22202 | 24.63566 | 26121 ft | 366 kts | 329° |
| 2026-05-04 12:44 | 36.24456 | 24.62090 | 26440 ft | 368 kts | 329° |
| 2026-05-04 12:44 | 36.26729 | 24.60601 | 26758 ft | 370 kts | 330° |
| 2026-05-04 12:44 | 36.29019 | 24.59099 | 27018 ft | 373 kts | 330° |
| 2026-05-04 12:45 | 36.31322 | 24.57588 | 27327 ft | 375 kts | 330° |
| 2026-05-04 12:45 | 36.33631 | 24.56072 | 27643 ft | 376 kts | 330° |
| 2026-05-04 12:45 | 36.35952 | 24.54548 | 27939 ft | 378 kts | 330° |
| 2026-05-04 12:45 | 36.38282 | 24.53016 | 28221 ft | 380 kts | 330° |
| 2026-05-04 12:46 | 36.40622 | 24.51477 | 28497 ft | 382 kts | 330° |
| 2026-05-04 12:46 | 36.42982 | 24.49923 | 28775 ft | 384 kts | 330° |
| 2026-05-04 12:46 | 36.45343 | 24.48368 | 29047 ft | 385 kts | 329° |
| 2026-05-04 12:46 | 36.47685 | 24.46824 | 29307 ft | 387 kts | 329° |
| 2026-05-04 12:47 | 36.50074 | 24.45248 | 29557 ft | 389 kts | 329° |
| 2026-05-04 12:47 | 36.52469 | 24.43667 | 29882 ft | 389 kts | 330° |
| 2026-05-04 12:47 | 36.54859 | 24.42088 | 30225 ft | 389 kts | 330° |
| 2026-05-04 12:47 | 36.57249 | 24.40509 | 30555 ft | 387 kts | 330° |
| 2026-05-04 12:48 | 36.59628 | 24.38936 | 30814 ft | 388 kts | 330° |
| 2026-05-04 12:48 | 36.62015 | 24.37355 | 31038 ft | 387 kts | 330° |
| 2026-05-04 12:48 | 36.64391 | 24.35782 | 31351 ft | 386 kts | 330° |
| 2026-05-04 12:48 | 36.66758 | 24.34213 | 31638 ft | 385 kts | 330° |
| 2026-05-04 12:49 | 36.69125 | 24.32642 | 31878 ft | 386 kts | 330° |
| 2026-05-04 12:49 | 36.71497 | 24.31067 | 32143 ft | 385 kts | 330° |
| 2026-05-04 12:49 | 36.73829 | 24.29518 | 32414 ft | 385 kts | 329° |
| 2026-05-04 12:49 | 36.76193 | 24.27947 | 32682 ft | 384 kts | 329° |
| 2026-05-04 12:50 | 36.78551 | 24.26382 | 32920 ft | 385 kts | 332° |
| 2026-05-04 12:50 | 36.83381 | 24.23338 | 33050 ft | 392 kts | 328° |
| 2026-05-04 12:50 | 36.85734 | 24.21612 | 33301 ft | 391 kts | 329° |
| 2026-05-04 12:51 | 36.88108 | 24.19966 | 33586 ft | 390 kts | 330° |
| 2026-05-04 12:51 | 36.90502 | 24.18356 | 33801 ft | 391 kts | 330° |
| 2026-05-04 12:51 | 36.92911 | 24.16755 | 33984 ft | 392 kts | 330° |
| 2026-05-04 12:51 | 36.95320 | 24.15157 | 34188 ft | 392 kts | 330° |
| 2026-05-04 12:52 | 36.97727 | 24.13559 | 34371 ft | 391 kts | 330° |
| 2026-05-04 12:52 | 37.00132 | 24.11957 | 34525 ft | 392 kts | 330° |
| 2026-05-04 12:52 | 37.02543 | 24.10347 | 34675 ft | 393 kts | 330° |
| 2026-05-04 12:52 | 37.04944 | 24.08718 | 34864 ft | 393 kts | 330° |
| 2026-05-04 12:53 | 37.07362 | 24.07083 | 34922 ft | 396 kts | 331° |
| 2026-05-04 12:53 | 37.09755 | 24.05486 | 35164 ft | 393 kts | 331° |
| 2026-05-04 12:53 | 37.12161 | 24.03879 | 35431 ft | 391 kts | 331° |
| 2026-05-04 12:54 | 37.16985 | 24.00645 | 35591 ft | 395 kts | 331° |
| 2026-05-04 12:54 | 37.19404 | 23.99020 | 35757 ft | 394 kts | 331° |
| 2026-05-04 12:54 | 37.21820 | 23.97392 | 35924 ft | 394 kts | 331° |
| 2026-05-04 12:54 | 37.24237 | 23.95763 | 36042 ft | 395 kts | 331° |
| 2026-05-04 12:55 | 37.26665 | 23.94124 | 36160 ft | 396 kts | 331° |
| 2026-05-04 12:55 | 37.29088 | 23.92488 | 36313 ft | 396 kts | 331° |
| 2026-05-04 12:55 | 37.31512 | 23.90850 | 36458 ft | 396 kts | 331° |
| 2026-05-04 12:55 | 37.33939 | 23.89208 | 36597 ft | 396 kts | 331° |
| 2026-05-04 12:56 | 37.36368 | 23.87563 | 36676 ft | 397 kts | 331° |
| 2026-05-04 12:56 | 37.41262 | 23.84247 | 36817 ft | 401 kts | 331° |
| 2026-05-04 12:57 | 37.46179 | 23.80908 | 36971 ft | 403 kts | 331° |
| 2026-05-04 12:57 | 37.51100 | 23.77564 | 37133 ft | 405 kts | 331° |
| 2026-05-04 12:58 | 37.56079 | 23.74174 | 37226 ft | 408 kts | 331° |
| 2026-05-04 12:58 | 37.61108 | 23.70745 | 37209 ft | 413 kts | 331° |
| 2026-05-04 12:58 | 37.63650 | 23.69009 | 36919 ft | 417 kts | 331° |
| 2026-05-04 12:59 | 37.66186 | 23.67277 | 36668 ft | 410 kts | 331° |
| 2026-05-04 12:59 | 37.68680 | 23.65573 | 36399 ft | 402 kts | 331° |
| 2026-05-04 12:59 | 37.71116 | 23.63906 | 36196 ft | 398 kts | 331° |
| 2026-05-04 13:00 | 37.75974 | 23.60578 | 36130 ft | 398 kts | 331° |
| 2026-05-04 13:00 | 37.80819 | 23.57254 | 36127 ft | 399 kts | 331° |
| 2026-05-04 13:01 | 37.85709 | 23.53894 | 36132 ft | 399 kts | 331° |
| 2026-05-04 13:01 | 37.90586 | 23.50538 | 36124 ft | 399 kts | 331° |
| 2026-05-04 13:02 | 37.95476 | 23.47168 | 36123 ft | 400 kts | 331° |
| 2026-05-04 13:02 | 38.00358 | 23.43799 | 36125 ft | 400 kts | 331° |
| 2026-05-04 13:03 | 38.05206 | 23.40447 | 36118 ft | 398 kts | 331° |
| 2026-05-04 13:03 | 38.10064 | 23.37084 | 36121 ft | 397 kts | 331° |
| 2026-05-04 13:04 | 38.14909 | 23.33725 | 36123 ft | 396 kts | 331° |
| 2026-05-04 13:04 | 38.18936 | 23.30928 | 36124 ft | 395 kts | 331° |
| 2026-05-04 13:05 | 38.24545 | 23.27027 | 36118 ft | 395 kts | 331° |
| 2026-05-04 13:05 | 38.28589 | 23.24212 | 36124 ft | 395 kts | 331° |
| 2026-05-04 13:06 | 38.33384 | 23.20867 | 36125 ft | 395 kts | 331° |
| 2026-05-04 13:06 | 38.38204 | 23.17501 | 36126 ft | 394 kts | 331° |
| 2026-05-04 13:07 | 38.43016 | 23.14133 | 36131 ft | 395 kts | 331° |
| 2026-05-04 13:07 | 38.47834 | 23.10758 | 36124 ft | 395 kts | 331° |
| 2026-05-04 13:08 | 38.52652 | 23.07377 | 36120 ft | 395 kts | 331° |
| 2026-05-04 13:08 | 38.57439 | 23.04012 | 36120 ft | 395 kts | 331° |
| 2026-05-04 13:09 | 38.62262 | 23.00618 | 36128 ft | 396 kts | 331° |
| 2026-05-04 13:09 | 38.67092 | 22.97213 | 36124 ft | 397 kts | 331° |
| 2026-05-04 13:10 | 38.71952 | 22.93781 | 36120 ft | 398 kts | 331° |
| 2026-05-04 13:10 | 38.76823 | 22.90336 | 36120 ft | 400 kts | 331° |
| 2026-05-04 13:11 | 38.81698 | 22.86884 | 36123 ft | 400 kts | 331° |
| 2026-05-04 13:11 | 38.86504 | 22.83474 | 36123 ft | 401 kts | 331° |
| 2026-05-04 13:12 | 38.91391 | 22.80001 | 36123 ft | 401 kts | 331° |
| 2026-05-04 13:12 | 38.96276 | 22.76525 | 36121 ft | 400 kts | 331° |
| 2026-05-04 13:13 | 39.01150 | 22.73051 | 36121 ft | 400 kts | 331° |
| 2026-05-04 13:13 | 39.06019 | 22.69574 | 36119 ft | 400 kts | 331° |
| 2026-05-04 13:14 | 39.10884 | 22.66096 | 36132 ft | 399 kts | 331° |
| 2026-05-04 13:14 | 39.15730 | 22.62625 | 36128 ft | 398 kts | 331° |
| 2026-05-04 13:15 | 39.20565 | 22.59156 | 36122 ft | 397 kts | 331° |
| 2026-05-04 13:15 | 39.25362 | 22.55710 | 36127 ft | 396 kts | 331° |
| 2026-05-04 13:16 | 39.30183 | 22.52240 | 36127 ft | 396 kts | 331° |
| 2026-05-04 13:16 | 39.35004 | 22.48766 | 36111 ft | 397 kts | 331° |
| 2026-05-04 13:17 | 39.39830 | 22.45282 | 36078 ft | 398 kts | 331° |
| 2026-05-04 13:17 | 39.44641 | 22.41803 | 36097 ft | 399 kts | 331° |
| 2026-05-04 13:18 | 39.49497 | 22.38287 | 36104 ft | 400 kts | 331° |
| 2026-05-04 13:18 | 39.54367 | 22.34753 | 36101 ft | 401 kts | 331° |
| 2026-05-04 13:19 | 39.59247 | 22.31208 | 36103 ft | 403 kts | 331° |
| 2026-05-04 13:19 | 39.64146 | 22.27642 | 36102 ft | 403 kts | 331° |
| 2026-05-04 13:20 | 39.69012 | 22.24095 | 36097 ft | 404 kts | 331° |
| 2026-05-04 13:20 | 39.73917 | 22.20514 | 36098 ft | 404 kts | 331° |
| 2026-05-04 13:21 | 39.78797 | 22.16944 | 36110 ft | 403 kts | 331° |
| 2026-05-04 13:21 | 39.83690 | 22.13360 | 36098 ft | 403 kts | 331° |
| 2026-05-04 13:22 | 39.88567 | 22.09781 | 36097 ft | 402 kts | 331° |
| 2026-05-04 13:22 | 39.93440 | 22.06200 | 36100 ft | 402 kts | 331° |
| 2026-05-04 13:23 | 39.98267 | 22.02646 | 36097 ft | 401 kts | 331° |
| 2026-05-04 13:23 | 40.03120 | 21.99068 | 36110 ft | 400 kts | 331° |
| 2026-05-04 13:24 | 40.07967 | 21.95487 | 36111 ft | 400 kts | 331° |
| 2026-05-04 13:24 | 40.12819 | 21.91898 | 36119 ft | 401 kts | 331° |
| 2026-05-04 13:25 | 40.20107 | 21.86495 | 36143 ft | 401 kts | 331° |
| 2026-05-04 13:25 | 40.24973 | 21.82879 | 36127 ft | 402 kts | 331° |
| 2026-05-04 13:26 | 40.29811 | 21.79279 | 36119 ft | 402 kts | 331° |
| 2026-05-04 13:26 | 40.34651 | 21.75672 | 36132 ft | 403 kts | 332° |
| 2026-05-04 13:27 | 40.39531 | 21.72027 | 36112 ft | 403 kts | 332° |
| 2026-05-04 13:27 | 40.44411 | 21.68378 | 36118 ft | 404 kts | 332° |
| 2026-05-04 13:28 | 40.49300 | 21.64715 | 36113 ft | 404 kts | 331° |
| 2026-05-04 13:28 | 40.54163 | 21.61065 | 36103 ft | 404 kts | 331° |
| 2026-05-04 13:29 | 40.59046 | 21.57395 | 36109 ft | 405 kts | 332° |
| 2026-05-04 13:29 | 40.63940 | 21.53709 | 36096 ft | 405 kts | 332° |
| 2026-05-04 13:30 | 40.68827 | 21.50022 | 36104 ft | 404 kts | 332° |
| 2026-05-04 13:30 | 40.73675 | 21.46360 | 36106 ft | 404 kts | 331° |
| 2026-05-04 13:31 | 40.78558 | 21.42663 | 36108 ft | 404 kts | 331° |
| 2026-05-04 13:31 | 40.83442 | 21.38960 | 36108 ft | 404 kts | 331° |
| 2026-05-04 13:32 | 40.88290 | 21.35180 | 36093 ft | 405 kts | 326° |
| 2026-05-04 13:32 | 40.92780 | 21.30641 | 36103 ft | 405 kts | 323° |
| 2026-05-04 13:33 | 40.97164 | 21.26037 | 36104 ft | 405 kts | 324° |
| 2026-05-04 13:33 | 41.01592 | 21.21419 | 36093 ft | 405 kts | 324° |
| 2026-05-04 13:34 | 41.06037 | 21.16813 | 36109 ft | 405 kts | 324° |
| 2026-05-04 13:34 | 41.10487 | 21.12207 | 36089 ft | 405 kts | 324° |
| 2026-05-04 13:35 | 41.17116 | 21.05332 | 36109 ft | 405 kts | 324° |
| 2026-05-04 13:36 | 41.21547 | 21.00726 | 36119 ft | 404 kts | 324° |
| 2026-05-04 13:36 | 41.25982 | 20.96109 | 36120 ft | 404 kts | 324° |
| 2026-05-04 13:37 | 41.30407 | 20.91493 | 36111 ft | 405 kts | 324° |
| 2026-05-04 13:37 | 41.34834 | 20.86867 | 36122 ft | 405 kts | 324° |
| 2026-05-04 13:38 | 41.39265 | 20.82229 | 36116 ft | 405 kts | 324° |
| 2026-05-04 13:38 | 41.43678 | 20.77600 | 36109 ft | 406 kts | 324° |
| 2026-05-04 13:39 | 41.48117 | 20.72938 | 36108 ft | 407 kts | 324° |
| 2026-05-04 13:39 | 41.52565 | 20.68255 | 36105 ft | 408 kts | 324° |
| 2026-05-04 13:40 | 41.57040 | 20.63537 | 36103 ft | 410 kts | 324° |
| 2026-05-04 13:40 | 41.61524 | 20.58800 | 36102 ft | 411 kts | 324° |
| 2026-05-04 13:41 | 41.66006 | 20.54056 | 36105 ft | 411 kts | 324° |
| 2026-05-04 13:41 | 41.70260 | 20.48924 | 36108 ft | 412 kts | 319° |
| 2026-05-04 13:42 | 41.76389 | 20.40889 | 36107 ft | 410 kts | 318° |
| 2026-05-04 13:42 | 41.80440 | 20.35586 | 36104 ft | 409 kts | 318° |
| 2026-05-04 13:43 | 41.84523 | 20.30256 | 36115 ft | 408 kts | 318° |
| 2026-05-04 13:43 | 41.88596 | 20.24942 | 36127 ft | 409 kts | 318° |
| 2026-05-04 13:44 | 41.92684 | 20.19599 | 36103 ft | 411 kts | 318° |
| 2026-05-04 13:44 | 41.96784 | 20.14230 | 36111 ft | 411 kts | 318° |
| 2026-05-04 13:45 | 42.00858 | 20.08897 | 36110 ft | 411 kts | 317° |
| 2026-05-04 13:45 | 42.04949 | 20.03508 | 36111 ft | 412 kts | 318° |
| 2026-05-04 13:46 | 42.09037 | 19.98118 | 36114 ft | 412 kts | 318° |
| 2026-05-04 13:46 | 42.13098 | 19.92759 | 36106 ft | 412 kts | 318° |
| 2026-05-04 13:47 | 42.17189 | 19.87351 | 36102 ft | 411 kts | 318° |
| 2026-05-04 13:47 | 42.21267 | 19.81949 | 36101 ft | 409 kts | 318° |
| 2026-05-04 13:48 | 42.25317 | 19.76568 | 36090 ft | 408 kts | 317° |
| 2026-05-04 13:48 | 42.29331 | 19.71233 | 36097 ft | 407 kts | 317° |
| 2026-05-04 13:49 | 42.33364 | 19.65859 | 36109 ft | 407 kts | 317° |
| 2026-05-04 13:49 | 42.37387 | 19.60491 | 36095 ft | 408 kts | 317° |
| 2026-05-04 13:50 | 42.41418 | 19.55102 | 36111 ft | 409 kts | 317° |
| 2026-05-04 13:50 | 42.45469 | 19.49676 | 36102 ft | 411 kts | 317° |
| 2026-05-04 13:51 | 42.49536 | 19.44215 | 36085 ft | 413 kts | 317° |
| 2026-05-04 13:51 | 42.53594 | 19.38757 | 36098 ft | 414 kts | 317° |
| 2026-05-04 13:52 | 42.59746 | 19.30461 | 36091 ft | 416 kts | 317° |
| 2026-05-04 13:53 | 42.63163 | 19.25843 | 36097 ft | 417 kts | 317° |
| 2026-05-04 13:53 | 42.67280 | 19.20268 | 36086 ft | 418 kts | 316° |
| 2026-05-04 13:54 | 42.73456 | 19.11885 | 36061 ft | 418 kts | 316° |
| 2026-05-04 13:55 | 42.79605 | 19.03514 | 36084 ft | 415 kts | 316° |
| 2026-05-04 13:55 | 42.85731 | 18.95148 | 36087 ft | 415 kts | 316° |
| 2026-05-04 13:56 | 42.89773 | 18.89615 | 36087 ft | 414 kts | 316° |
| 2026-05-04 13:57 | 42.95855 | 18.81269 | 36092 ft | 412 kts | 316° |
| 2026-05-04 13:58 | 43.03938 | 18.70138 | 36094 ft | 413 kts | 316° |
| 2026-05-04 13:58 | 43.10006 | 18.61753 | 36115 ft | 413 kts | 316° |
| 2026-05-04 13:59 | 43.14050 | 18.56157 | 36104 ft | 414 kts | 316° |
| 2026-05-04 14:00 | 43.20591 | 18.48479 | 36104 ft | 414 kts | 321° |
| 2026-05-04 14:00 | 43.27270 | 18.40924 | 36100 ft | 415 kts | 321° |
| 2026-05-04 14:01 | 43.31716 | 18.35833 | 36106 ft | 416 kts | 320° |
| 2026-05-04 14:02 | 43.38370 | 18.28166 | 36097 ft | 417 kts | 320° |
| 2026-05-04 14:02 | 43.42792 | 18.23054 | 36094 ft | 417 kts | 320° |
| 2026-05-04 14:03 | 43.47231 | 18.17913 | 36089 ft | 417 kts | 320° |
| 2026-05-04 14:03 | 43.51671 | 18.12760 | 36091 ft | 416 kts | 320° |
| 2026-05-04 14:04 | 43.58286 | 18.05066 | 36082 ft | 416 kts | 320° |
| 2026-05-04 14:04 | 43.62707 | 17.99910 | 36089 ft | 416 kts | 320° |
| 2026-05-04 14:05 | 43.69336 | 17.92160 | 36080 ft | 416 kts | 320° |
| 2026-05-04 14:06 | 43.73768 | 17.86966 | 36071 ft | 416 kts | 320° |
| 2026-05-04 14:06 | 43.78137 | 17.81836 | 36074 ft | 416 kts | 320° |
| 2026-05-04 14:07 | 43.82557 | 17.76648 | 36084 ft | 416 kts | 320° |
| 2026-05-04 14:07 | 43.86916 | 17.71491 | 36071 ft | 417 kts | 320° |
| 2026-05-04 14:08 | 43.91335 | 17.66270 | 36079 ft | 418 kts | 320° |
| 2026-05-04 14:08 | 43.95746 | 17.61052 | 36063 ft | 419 kts | 320° |
| 2026-05-04 14:09 | 44.02383 | 17.53150 | 36062 ft | 418 kts | 320° |
| 2026-05-04 14:10 | 44.09016 | 17.45246 | 36067 ft | 419 kts | 320° |
| 2026-05-04 14:10 | 44.13409 | 17.40026 | 36060 ft | 418 kts | 320° |
| 2026-05-04 14:11 | 44.17831 | 17.34747 | 36063 ft | 418 kts | 320° |
| 2026-05-04 14:11 | 44.24441 | 17.26823 | 36050 ft | 418 kts | 320° |
| 2026-05-04 14:12 | 44.28845 | 17.21529 | 36063 ft | 418 kts | 320° |
| 2026-05-04 14:13 | 44.35428 | 17.13594 | 36047 ft | 419 kts | 320° |
| 2026-05-04 14:13 | 44.39846 | 17.08256 | 36043 ft | 419 kts | 319° |
| 2026-05-04 14:14 | 44.44267 | 17.02940 | 36049 ft | 419 kts | 319° |
| 2026-05-04 14:14 | 44.50858 | 16.94899 | 36053 ft | 420 kts | 319° |
| 2026-05-04 14:15 | 44.59358 | 16.83643 | 36059 ft | 421 kts | 314° |
| 2026-05-04 14:16 | 44.65388 | 16.74730 | 36047 ft | 421 kts | 314° |
| 2026-05-04 14:17 | 44.71460 | 16.65795 | 36041 ft | 421 kts | 314° |
| 2026-05-04 14:18 | 44.77555 | 16.56846 | 36048 ft | 421 kts | 314° |
| 2026-05-04 14:19 | 44.85618 | 16.44957 | 36034 ft | 421 kts | 313° |
| 2026-05-04 14:19 | 44.89670 | 16.38970 | 36035 ft | 421 kts | 313° |
| 2026-05-04 14:20 | 44.93686 | 16.33024 | 36035 ft | 421 kts | 313° |
| 2026-05-04 14:20 | 44.97724 | 16.27028 | 36031 ft | 421 kts | 313° |
| 2026-05-04 14:21 | 45.03750 | 16.18069 | 36031 ft | 421 kts | 313° |
| 2026-05-04 14:21 | 45.07771 | 16.12041 | 36032 ft | 421 kts | 313° |
| 2026-05-04 14:22 | 45.11802 | 16.06010 | 36032 ft | 421 kts | 313° |
| 2026-05-04 14:22 | 45.15832 | 15.99973 | 36036 ft | 421 kts | 313° |
| 2026-05-04 14:23 | 45.21863 | 15.90914 | 36025 ft | 421 kts | 312° |
| 2026-05-04 14:24 | 45.25881 | 15.84847 | 36038 ft | 421 kts | 312° |
| 2026-05-04 14:24 | 45.29902 | 15.78769 | 36036 ft | 422 kts | 312° |
| 2026-05-04 14:25 | 45.33890 | 15.72730 | 36036 ft | 422 kts | 312° |
| 2026-05-04 14:25 | 45.39921 | 15.63571 | 36031 ft | 423 kts | 311° |
| 2026-05-04 14:26 | 45.43933 | 15.57436 | 36025 ft | 423 kts | 312° |
| 2026-05-04 14:26 | 45.48130 | 15.51536 | 36031 ft | 424 kts | 315° |
| 2026-05-04 14:27 | 45.52423 | 15.45755 | 36034 ft | 425 kts | 315° |
| 2026-05-04 14:27 | 45.56681 | 15.39973 | 36026 ft | 425 kts | 315° |
| 2026-05-04 14:28 | 45.60949 | 15.34122 | 36030 ft | 425 kts | 315° |
| 2026-05-04 14:28 | 45.65215 | 15.28243 | 36025 ft | 426 kts | 315° |
| 2026-05-04 14:29 | 45.73737 | 15.16457 | 36033 ft | 425 kts | 314° |
| 2026-05-04 14:30 | 45.77985 | 15.10565 | 36035 ft | 425 kts | 314° |
| 2026-05-04 14:31 | 45.84326 | 15.01741 | 36036 ft | 425 kts | 314° |
| 2026-05-04 14:32 | 45.92631 | 14.89676 | 36050 ft | 424 kts | 310° |
| 2026-05-04 14:32 | 45.96546 | 14.83302 | 36052 ft | 424 kts | 310° |
| 2026-05-04 14:33 | 46.00438 | 14.76987 | 36051 ft | 424 kts | 310° |
| 2026-05-04 14:33 | 46.04376 | 14.70632 | 36058 ft | 424 kts | 310° |
| 2026-05-04 14:34 | 46.08301 | 14.64280 | 36051 ft | 425 kts | 310° |
| 2026-05-04 14:34 | 46.12227 | 14.57926 | 36052 ft | 425 kts | 310° |
| 2026-05-04 14:35 | 46.16161 | 14.51548 | 36055 ft | 425 kts | 310° |
| 2026-05-04 14:35 | 46.20099 | 14.45161 | 36047 ft | 426 kts | 310° |
| 2026-05-04 14:36 | 46.24004 | 14.38793 | 36049 ft | 426 kts | 309° |
| 2026-05-04 14:36 | 46.27911 | 14.32349 | 36056 ft | 427 kts | 308° |
| 2026-05-04 14:37 | 46.31743 | 14.25780 | 36061 ft | 427 kts | 308° |
| 2026-05-04 14:37 | 46.35557 | 14.19184 | 36049 ft | 428 kts | 308° |
| 2026-05-04 14:38 | 46.39389 | 14.12561 | 36059 ft | 428 kts | 308° |
| 2026-05-04 14:38 | 46.43194 | 14.05983 | 36055 ft | 428 kts | 308° |
| 2026-05-04 14:39 | 46.47033 | 13.99342 | 36054 ft | 429 kts | 307° |
| 2026-05-04 14:39 | 46.50874 | 13.92699 | 36046 ft | 429 kts | 307° |
| 2026-05-04 14:40 | 46.56592 | 13.82718 | 36045 ft | 428 kts | 307° |
| 2026-05-04 14:40 | 46.60377 | 13.76119 | 36044 ft | 427 kts | 307° |
| 2026-05-04 14:41 | 46.63535 | 13.70598 | 36044 ft | 427 kts | 308° |
| 2026-05-04 14:42 | 46.71127 | 13.57270 | 36048 ft | 428 kts | 307° |
| 2026-05-04 14:42 | 46.74932 | 13.50569 | 36058 ft | 429 kts | 307° |
| 2026-05-04 14:43 | 46.78709 | 13.43885 | 36042 ft | 429 kts | 307° |
| 2026-05-04 14:43 | 46.82519 | 13.37142 | 36043 ft | 430 kts | 307° |
| 2026-05-04 14:44 | 46.86320 | 13.30401 | 36040 ft | 431 kts | 307° |
| 2026-05-04 14:44 | 46.90135 | 13.23617 | 36037 ft | 432 kts | 307° |
| 2026-05-04 14:45 | 46.93954 | 13.16805 | 36038 ft | 433 kts | 307° |
| 2026-05-04 14:45 | 46.97757 | 13.10006 | 36028 ft | 434 kts | 307° |
| 2026-05-04 14:46 | 47.01585 | 13.03143 | 36024 ft | 436 kts | 307° |
| 2026-05-04 14:46 | 47.05398 | 12.96292 | 36009 ft | 437 kts | 307° |
| 2026-05-04 14:47 | 47.09241 | 12.89369 | 35997 ft | 437 kts | 307° |
| 2026-05-04 14:47 | 47.13073 | 12.82449 | 36011 ft | 436 kts | 306° |
| 2026-05-04 14:48 | 47.16894 | 12.75529 | 35985 ft | 435 kts | 306° |
| 2026-05-04 14:48 | 47.20688 | 12.68643 | 35974 ft | 433 kts | 306° |
| 2026-05-04 14:49 | 47.24464 | 12.61772 | 35985 ft | 430 kts | 306° |
| 2026-05-04 14:49 | 47.28219 | 12.54923 | 35970 ft | 429 kts | 306° |
| 2026-05-04 14:50 | 47.31962 | 12.48074 | 35971 ft | 429 kts | 306° |
| 2026-05-04 14:50 | 47.35697 | 12.41227 | 35969 ft | 430 kts | 306° |
| 2026-05-04 14:51 | 47.39431 | 12.34334 | 35953 ft | 430 kts | 304° |
| 2026-05-04 14:51 | 47.42720 | 12.26983 | 35944 ft | 429 kts | 299° |
| 2026-05-04 14:52 | 47.45835 | 12.19535 | 35937 ft | 429 kts | 300° |
| 2026-05-04 14:52 | 47.49024 | 12.12040 | 35939 ft | 431 kts | 300° |
| 2026-05-04 14:53 | 47.52239 | 12.04550 | 35918 ft | 432 kts | 300° |
| 2026-05-04 14:53 | 47.55573 | 11.97137 | 35930 ft | 433 kts | 303° |
| 2026-05-04 14:54 | 47.59190 | 11.89972 | 35923 ft | 434 kts | 304° |
| 2026-05-04 14:54 | 47.62820 | 11.82835 | 35930 ft | 433 kts | 304° |
| 2026-05-04 14:55 | 47.66388 | 11.75720 | 35942 ft | 432 kts | 304° |
| 2026-05-04 14:55 | 47.69969 | 11.68525 | 35932 ft | 433 kts | 303° |
| 2026-05-04 14:56 | 47.73529 | 11.61320 | 35922 ft | 433 kts | 303° |
| 2026-05-04 14:56 | 47.77098 | 11.54090 | 35935 ft | 433 kts | 303° |
| 2026-05-04 14:57 | 47.80635 | 11.46912 | 35937 ft | 433 kts | 303° |
| 2026-05-04 14:57 | 47.84189 | 11.39681 | 35952 ft | 433 kts | 303° |
| 2026-05-04 14:58 | 47.87747 | 11.32442 | 35963 ft | 433 kts | 303° |
| 2026-05-04 14:58 | 47.91321 | 11.25197 | 35965 ft | 433 kts | 303° |
| 2026-05-04 14:59 | 47.94884 | 11.17957 | 35966 ft | 433 kts | 303° |
| 2026-05-04 15:00 | 48.00224 | 11.07063 | 35963 ft | 433 kts | 303° |
| 2026-05-04 15:00 | 48.03800 | 10.99837 | 35971 ft | 432 kts | 303° |
| 2026-05-04 15:01 | 48.09083 | 10.88906 | 35965 ft | 432 kts | 303° |
| 2026-05-04 15:01 | 48.12613 | 10.81607 | 35965 ft | 433 kts | 303° |
| 2026-05-04 15:02 | 48.16149 | 10.74293 | 35979 ft | 433 kts | 303° |
| 2026-05-04 15:02 | 48.19656 | 10.67024 | 35972 ft | 433 kts | 302° |
| 2026-05-04 15:03 | 48.23183 | 10.59696 | 35966 ft | 434 kts | 302° |
| 2026-05-04 15:03 | 48.26715 | 10.52336 | 35961 ft | 434 kts | 302° |
| 2026-05-04 15:04 | 48.30246 | 10.44956 | 35964 ft | 434 kts | 302° |
| 2026-05-04 15:04 | 48.33750 | 10.37614 | 35960 ft | 434 kts | 302° |
| 2026-05-04 15:05 | 48.37269 | 10.30222 | 35973 ft | 435 kts | 302° |
| 2026-05-04 15:05 | 48.40790 | 10.22804 | 35967 ft | 435 kts | 302° |
| 2026-05-04 15:06 | 48.44305 | 10.15377 | 35961 ft | 435 kts | 302° |
| 2026-05-04 15:07 | 48.49572 | 10.04214 | 35962 ft | 435 kts | 302° |
| 2026-05-04 15:07 | 48.53070 | 9.96772 | 35983 ft | 435 kts | 302° |
| 2026-05-04 15:08 | 48.56573 | 9.89301 | 35967 ft | 435 kts | 302° |
| 2026-05-04 15:08 | 48.60037 | 9.81889 | 35960 ft | 435 kts | 301° |
| 2026-05-04 15:09 | 48.63521 | 9.74418 | 35957 ft | 434 kts | 301° |
| 2026-05-04 15:09 | 48.66985 | 9.66970 | 35966 ft | 433 kts | 301° |
| 2026-05-04 15:10 | 48.72380 | 9.55984 | 35963 ft | 434 kts | 303° |
| 2026-05-04 15:11 | 48.77869 | 9.45082 | 35955 ft | 433 kts | 303° |
| 2026-05-04 15:11 | 48.81478 | 9.37832 | 35952 ft | 433 kts | 303° |
| 2026-05-04 15:12 | 48.85117 | 9.30479 | 35964 ft | 432 kts | 303° |
| 2026-05-04 15:12 | 48.88701 | 9.23212 | 35961 ft | 432 kts | 303° |
| 2026-05-04 15:13 | 48.92297 | 9.15899 | 35966 ft | 432 kts | 302° |
| 2026-05-04 15:13 | 48.95892 | 9.08571 | 35969 ft | 432 kts | 302° |
| 2026-05-04 15:14 | 48.99481 | 9.01234 | 35959 ft | 432 kts | 302° |
| 2026-05-04 15:14 | 49.03065 | 8.93888 | 35963 ft | 431 kts | 302° |
| 2026-05-04 15:15 | 49.06613 | 8.86596 | 35971 ft | 431 kts | 302° |
| 2026-05-04 15:15 | 49.10184 | 8.79235 | 35973 ft | 432 kts | 302° |
| 2026-05-04 15:16 | 49.15570 | 8.68092 | 35973 ft | 437 kts | 302° |
| 2026-05-04 15:17 | 49.20985 | 8.56849 | 35985 ft | 438 kts | 302° |
| 2026-05-04 15:17 | 49.26393 | 8.45572 | 35954 ft | 439 kts | 302° |
| 2026-05-04 15:18 | 49.29990 | 8.38047 | 35964 ft | 437 kts | 302° |
| 2026-05-04 15:19 | 49.35347 | 8.26797 | 35973 ft | 433 kts | 301° |
| 2026-05-04 15:19 | 49.40633 | 8.15648 | 35985 ft | 431 kts | 301° |
| 2026-05-04 15:20 | 49.44166 | 8.08170 | 35974 ft | 431 kts | 301° |
| 2026-05-04 15:20 | 49.47679 | 8.00713 | 35998 ft | 430 kts | 301° |
| 2026-05-04 15:21 | 49.51193 | 7.93233 | 35994 ft | 431 kts | 301° |
| 2026-05-04 15:22 | 49.56448 | 7.82007 | 35986 ft | 433 kts | 301° |
| 2026-05-04 15:22 | 49.61740 | 7.70657 | 35986 ft | 435 kts | 301° |
| 2026-05-04 15:23 | 49.65271 | 7.63056 | 35980 ft | 436 kts | 301° |
| 2026-05-04 15:23 | 49.68807 | 7.55422 | 35997 ft | 438 kts | 301° |
| 2026-05-04 15:24 | 49.75902 | 7.40042 | 35998 ft | 439 kts | 301° |
| 2026-05-04 15:25 | 49.79422 | 7.32377 | 35994 ft | 440 kts | 300° |
| 2026-05-04 15:26 | 49.84727 | 7.20783 | 36001 ft | 439 kts | 300° |
| 2026-05-04 15:26 | 49.89408 | 7.10511 | 35992 ft | 438 kts | 300° |
| 2026-05-04 15:27 | 49.94666 | 6.98925 | 36013 ft | 437 kts | 300° |
| 2026-05-04 15:28 | 49.99902 | 6.87336 | 35998 ft | 436 kts | 300° |
| 2026-05-04 15:29 | 50.05091 | 6.75800 | 36000 ft | 437 kts | 300° |
| 2026-05-04 15:30 | 50.12128 | 6.60075 | 36715 ft | 440 kts | 300° |
| 2026-05-04 15:30 | 50.17334 | 6.48384 | 37322 ft | 440 kts | 300° |
| 2026-05-04 15:31 | 50.20735 | 6.40477 | 37706 ft | 438 kts | 298° |
| 2026-05-04 15:31 | 50.22337 | 6.36420 | 37771 ft | 440 kts | 297° |
| 2026-05-04 15:32 | 50.27062 | 6.24183 | 38421 ft | 436 kts | 297° |
| 2026-05-04 15:32 | 50.30231 | 6.16027 | 38531 ft | 441 kts | 297° |
| 2026-05-04 15:33 | 50.33437 | 6.07811 | 38716 ft | 443 kts | 297° |
| 2026-05-04 15:34 | 50.38251 | 5.95449 | 38743 ft | 450 kts | 298° |
| 2026-05-04 15:34 | 50.39884 | 5.91241 | 38480 ft | 452 kts | 297° |
| 2026-05-04 15:34 | 50.43106 | 5.82932 | 38001 ft | 438 kts | 297° |
| 2026-05-04 15:35 | 50.47806 | 5.70749 | 38002 ft | 435 kts | 297° |
| 2026-05-04 15:36 | 50.52539 | 5.58405 | 37993 ft | 443 kts | 297° |
| 2026-05-04 15:36 | 50.55714 | 5.50100 | 37984 ft | 443 kts | 297° |
| 2026-05-04 15:37 | 50.58869 | 5.41824 | 37976 ft | 443 kts | 297° |
| 2026-05-04 15:37 | 50.62033 | 5.33500 | 37981 ft | 442 kts | 297° |
| 2026-05-04 15:38 | 50.65182 | 5.25183 | 37990 ft | 441 kts | 297° |
| 2026-05-04 15:38 | 50.68303 | 5.16914 | 37990 ft | 440 kts | 297° |
| 2026-05-04 15:39 | 50.71427 | 5.08610 | 37976 ft | 440 kts | 297° |
| 2026-05-04 15:40 | 50.76093 | 4.96157 | 37969 ft | 439 kts | 297° |
| 2026-05-04 15:40 | 50.79178 | 4.87891 | 37976 ft | 439 kts | 297° |
| 2026-05-04 15:41 | 50.82280 | 4.79554 | 37969 ft | 439 kts | 297° |
| 2026-05-04 15:41 | 50.85375 | 4.71207 | 37972 ft | 440 kts | 297° |
| 2026-05-04 15:42 | 50.88462 | 4.62852 | 37975 ft | 441 kts | 297° |
| 2026-05-04 15:42 | 50.91567 | 4.54425 | 37978 ft | 442 kts | 297° |
| 2026-05-04 15:43 | 50.94668 | 4.45979 | 37963 ft | 444 kts | 297° |
| 2026-05-04 15:43 | 50.97748 | 4.37562 | 37970 ft | 444 kts | 297° |
| 2026-05-04 15:44 | 51.00854 | 4.29046 | 37970 ft | 445 kts | 297° |
| 2026-05-04 15:44 | 51.03951 | 4.20529 | 37972 ft | 445 kts | 297° |
| 2026-05-04 15:45 | 51.07045 | 4.11988 | 37978 ft | 446 kts | 297° |
| 2026-05-04 15:45 | 51.10137 | 4.03426 | 37977 ft | 448 kts | 297° |
| 2026-05-04 15:46 | 51.13233 | 3.94825 | 37960 ft | 447 kts | 296° |
| 2026-05-04 15:46 | 51.16318 | 3.86224 | 37967 ft | 446 kts | 296° |
| 2026-05-04 15:47 | 51.19372 | 3.77681 | 37967 ft | 446 kts | 297° |
| 2026-05-04 15:47 | 51.22428 | 3.69092 | 37964 ft | 444 kts | 295° |
| 2026-05-04 15:48 | 51.24494 | 3.59954 | 37981 ft | 435 kts | 279° |
| 2026-05-04 15:48 | 51.26238 | 3.45740 | 37973 ft | 435 kts | 279° |
| 2026-05-04 15:49 | 51.27474 | 3.36284 | 37981 ft | 435 kts | 279° |
| 2026-05-04 15:49 | 51.28631 | 3.26792 | 37983 ft | 434 kts | 277° |
| 2026-05-04 15:50 | 51.29864 | 3.17386 | 37988 ft | 436 kts | 281° |
| 2026-05-04 15:50 | 51.31219 | 3.07923 | 37994 ft | 436 kts | 278° |
| 2026-05-04 15:51 | 51.32386 | 2.98365 | 37994 ft | 438 kts | 278° |
| 2026-05-04 15:51 | 51.33566 | 2.88814 | 37996 ft | 439 kts | 278° |
| 2026-05-04 15:52 | 51.34772 | 2.79223 | 37992 ft | 440 kts | 278° |
| 2026-05-04 15:52 | 51.35964 | 2.69646 | 37986 ft | 441 kts | 278° |
| 2026-05-04 15:53 | 51.37144 | 2.59992 | 37985 ft | 442 kts | 278° |
| 2026-05-04 15:53 | 51.38314 | 2.50345 | 37992 ft | 442 kts | 278° |
| 2026-05-04 15:54 | 51.39479 | 2.40686 | 37988 ft | 442 kts | 278° |
| 2026-05-04 15:54 | 51.40638 | 2.31026 | 37992 ft | 441 kts | 278° |
| 2026-05-04 15:55 | 51.41790 | 2.21424 | 37987 ft | 441 kts | 278° |
| 2026-05-04 15:55 | 51.42971 | 2.11787 | 37989 ft | 440 kts | 278° |
| 2026-05-04 15:56 | 51.44141 | 2.02163 | 37988 ft | 439 kts | 278° |
| 2026-05-04 15:56 | 51.45294 | 1.92535 | 37990 ft | 439 kts | 278° |
| 2026-05-04 15:57 | 51.46424 | 1.82922 | 37989 ft | 439 kts | 278° |
| 2026-05-04 15:57 | 51.47523 | 1.73312 | 37991 ft | 438 kts | 278° |
| 2026-05-04 15:58 | 51.48621 | 1.63668 | 37994 ft | 438 kts | 278° |
| 2026-05-04 15:58 | 51.49712 | 1.54035 | 37995 ft | 439 kts | 277° |
| 2026-05-04 15:59 | 51.50792 | 1.44447 | 37996 ft | 439 kts | 277° |
| 2026-05-04 15:59 | 51.51872 | 1.34784 | 37997 ft | 440 kts | 278° |
| 2026-05-04 16:00 | 51.52950 | 1.25078 | 38009 ft | 441 kts | 277° |
| 2026-05-04 16:00 | 51.54014 | 1.15355 | 38006 ft | 442 kts | 276° |
| 2026-05-04 16:01 | 51.54180 | 1.05558 | 38015 ft | 439 kts | 265° |
| 2026-05-04 16:01 | 51.53966 | 0.95738 | 38016 ft | 440 kts | 266° |
| 2026-05-04 16:02 | 51.53893 | 0.90809 | 37809 ft | 444 kts | 266° |
| 2026-05-04 16:02 | 51.53828 | 0.85836 | 37505 ft | 442 kts | 266° |
| 2026-05-04 16:02 | 51.53700 | 0.76062 | 36737 ft | 432 kts | 266° |
| 2026-05-04 16:03 | 51.53631 | 0.71260 | 36346 ft | 429 kts | 266° |
| 2026-05-04 16:03 | 51.53561 | 0.66544 | 35980 ft | 425 kts | 266° |
| 2026-05-04 16:03 | 51.53487 | 0.61820 | 35591 ft | 421 kts | 265° |
| 2026-05-04 16:03 | 51.53412 | 0.57128 | 35214 ft | 418 kts | 265° |
| 2026-05-04 16:04 | 51.53335 | 0.52474 | 34837 ft | 415 kts | 265° |
| 2026-05-04 16:04 | 51.53180 | 0.43272 | 34096 ft | 410 kts | 265° |
| 2026-05-04 16:04 | 51.53100 | 0.38710 | 33672 ft | 407 kts | 265° |
| 2026-05-04 16:05 | 51.53063 | 0.34182 | 33378 ft | 402 kts | 266° |
| 2026-05-04 16:05 | 51.53075 | 0.29710 | 32998 ft | 398 kts | 267° |
| 2026-05-04 16:05 | 51.53131 | 0.20897 | 32287 ft | 391 kts | 267° |
| 2026-05-04 16:06 | 51.53153 | 0.16587 | 31938 ft | 388 kts | 267° |
| 2026-05-04 16:06 | 51.53185 | 0.05102 | 31008 ft | 381 kts | 266° |
| 2026-05-04 16:07 | 51.53192 | -0.00502 | 30569 ft | 377 kts | 266° |
| 2026-05-04 16:07 | 51.53194 | -0.12997 | 29484 ft | 368 kts | 266° |
| 2026-05-04 16:08 | 51.53192 | -0.17088 | 29129 ft | 363 kts | 266° |
| 2026-05-04 16:08 | 51.53177 | -0.29102 | 28093 ft | 353 kts | 266° |
| 2026-05-04 16:09 | 51.53160 | -0.36887 | 27417 ft | 348 kts | 266° |
| 2026-05-04 16:09 | 51.53139 | -0.44588 | 26749 ft | 342 kts | 266° |
| 2026-05-04 16:10 | 51.53113 | -0.52185 | 26096 ft | 337 kts | 266° |
| 2026-05-04 16:11 | 51.53066 | -0.63171 | 25159 ft | 331 kts | 266° |
| 2026-05-04 16:11 | 51.53048 | -0.66856 | 24838 ft | 329 kts | 266° |
| 2026-05-04 16:12 | 51.52989 | -0.77742 | 23903 ft | 324 kts | 266° |
| 2026-05-04 16:12 | 51.52929 | -0.87310 | 22997 ft | 319 kts | 266° |
| 2026-05-04 16:13 | 51.52880 | -0.94388 | 22378 ft | 314 kts | 266° |
| 2026-05-04 16:13 | 51.52827 | -1.01354 | 21753 ft | 310 kts | 266° |
| 2026-05-04 16:14 | 51.52772 | -1.08237 | 21150 ft | 308 kts | 266° |
| 2026-05-04 16:14 | 51.52712 | -1.15157 | 20557 ft | 315 kts | 268° |
| 2026-05-04 16:15 | 51.53768 | -1.25883 | 19527 ft | 325 kts | 279° |
| 2026-05-04 16:16 | 51.54658 | -1.32920 | 18902 ft | 323 kts | 278° |
| 2026-05-04 16:16 | 51.55932 | -1.43506 | 17907 ft | 320 kts | 278° |
| 2026-05-04 16:17 | 51.56754 | -1.50492 | 17267 ft | 317 kts | 278° |
| 2026-05-04 16:18 | 51.57963 | -1.60858 | 16350 ft | 311 kts | 278° |
| 2026-05-04 16:18 | 51.58358 | -1.64268 | 16045 ft | 309 kts | 278° |
| 2026-05-04 16:19 | 51.58434 | -1.74467 | 15118 ft | 302 kts | 265° |
| 2026-05-04 16:19 | 51.58224 | -1.81158 | 14526 ft | 298 kts | 266° |
| 2026-05-04 16:20 | 51.57944 | -1.91090 | 13611 ft | 297 kts | 266° |
| 2026-05-04 16:20 | 51.57778 | -1.97694 | 12977 ft | 293 kts | 266° |
| 2026-05-04 16:21 | 51.57537 | -2.07411 | 12112 ft | 287 kts | 266° |
| 2026-05-04 16:22 | 51.57382 | -2.13798 | 11538 ft | 284 kts | 266° |
| 2026-05-04 16:22 | 51.57143 | -2.23252 | 10697 ft | 280 kts | 265° |
| 2026-05-04 16:23 | 51.56902 | -2.32489 | 10045 ft | 270 kts | 266° |
| 2026-05-04 16:24 | 51.56573 | -2.44471 | 8922 ft | 267 kts | 266° |
| 2026-05-04 16:25 | 51.56411 | -2.50421 | 8373 ft | 265 kts | 265° |
| 2026-05-04 16:26 | 51.56084 | -2.62143 | 7318 ft | 262 kts | 266° |
| 2026-05-04 16:26 | 51.55818 | -2.70910 | 6497 ft | 262 kts | 266° |
| 2026-05-04 16:27 | 51.55638 | -2.76744 | 5945 ft | 261 kts | 265° |
| 2026-05-04 16:28 | 51.55334 | -2.85381 | 5176 ft | 257 kts | 257° |
| 2026-05-04 16:28 | 51.51467 | -2.90102 | 4587 ft | 239 kts | 191° |
| 2026-05-04 16:29 | 51.45239 | -2.92029 | 4076 ft | 226 kts | 191° |
| 2026-05-04 16:30 | 51.40624 | -2.93523 | 3424 ft | 219 kts | 191° |
| 2026-05-04 16:31 | 51.37828 | -2.93158 | 2929 ft | 200 kts | 131° |
| 2026-05-04 16:31 | 51.37665 | -2.87069 | 2353 ft | 186 kts | 82° |
| 2026-05-04 16:32 | 51.37921 | -2.80962 | 1598 ft | 173 kts | 83° |
| 2026-05-04 16:33 | 51.38054 | -2.77457 | 1174 ft | 153 kts | 83° |
| 2026-05-04 16:33 | 51.38180 | -2.74148 | 747 ft | 146 kts | 83° |
| 2026-05-04 16:34 | 51.38293 | -2.71249 | 601 ft | 87 kts | 86° |
| 2026-05-04 16:34 | 51.38317 | -2.70628 | 608 ft | 24 kts | 86° |
| 2026-05-04 16:35 | 51.38433 | -2.70519 | 611 ft | 5 kts | 342° |
| 2026-05-04 16:35 | 51.38442 | -2.70525 | 608 ft | 0 kts | 332° |
| 2026-05-04 16:36 | 51.38465 | -2.70557 | 619 ft | 10 kts | 305° |
| 2026-05-04 16:36 | 51.38463 | -2.70930 | 613 ft | 19 kts | 266° |
| 2026-05-04 16:37 | 51.38453 | -2.71221 | 627 ft | 10 kts | 266° |
| 2026-05-04 16:37 | 51.38448 | -2.71337 | 616 ft | 11 kts | 266° |
| 2026-05-04 16:37 | 51.38461 | -2.71584 | 616 ft | 10 kts | 330° |